sensor_id;sensor_type;location;lat;lon;timestamp;P1;durP1;ratioP1;P2;durP2;ratioP2
73776;SDS011;62088;50.240;2.696;2023-06-26T00:00:04;10.10;;;3.03;;
73776;SDS011;62088;50.240;2.696;2023-06-26T00:02:31;9.43;;;3.08;;
73776;SDS011;62088;50.240;2.696;2023-06-26T00:04:59;8.93;;;2.70;;
73776;SDS011;62088;50.240;2.696;2023-06-26T00:07:29;17.20;;;3.83;;
73776;SDS011;62088;50.240;2.696;2023-06-26T00:09:57;8.02;;;3.05;;
73776;SDS011;62088;50.240;2.696;2023-06-26T00:12:25;12.07;;;3.28;;
73776;SDS011;62088;50.240;2.696;2023-06-26T00:14:53;7.05;;;2.55;;
73776;SDS011;62088;50.240;2.696;2023-06-26T00:17:20;10.85;;;2.70;;
73776;SDS011;62088;50.240;2.696;2023-06-26T00:19:47;9.77;;;2.60;;
73776;SDS011;62088;50.240;2.696;2023-06-26T00:22:15;10.57;;;2.95;;
73776;SDS011;62088;50.240;2.696;2023-06-26T00:24:42;10.95;;;3.00;;
73776;SDS011;62088;50.240;2.696;2023-06-26T00:27:11;8.80;;;2.67;;
73776;SDS011;62088;50.240;2.696;2023-06-26T00:29:38;12.20;;;3.33;;
73776;SDS011;62088;50.240;2.696;2023-06-26T00:32:06;7.18;;;2.58;;
73776;SDS011;62088;50.240;2.696;2023-06-26T00:34:33;10.68;;;3.50;;
73776;SDS011;62088;50.240;2.696;2023-06-26T00:37:00;11.75;;;3.35;;
73776;SDS011;62088;50.240;2.696;2023-06-26T00:39:28;10.70;;;2.92;;
73776;SDS011;62088;50.240;2.696;2023-06-26T00:41:56;10.15;;;2.78;;
73776;SDS011;62088;50.240;2.696;2023-06-26T00:44:23;9.35;;;3.00;;
73776;SDS011;62088;50.240;2.696;2023-06-26T00:46:51;9.85;;;3.10;;
73776;SDS011;62088;50.240;2.696;2023-06-26T00:49:18;10.90;;;3.13;;
73776;SDS011;62088;50.240;2.696;2023-06-26T00:51:46;14.55;;;3.25;;
73776;SDS011;62088;50.240;2.696;2023-06-26T00:54:13;11.65;;;2.83;;
73776;SDS011;62088;50.240;2.696;2023-06-26T00:56:47;10.73;;;3.40;;
73776;SDS011;62088;50.240;2.696;2023-06-26T00:59:15;7.32;;;2.85;;
73776;SDS011;62088;50.240;2.696;2023-06-26T01:01:42;13.35;;;3.45;;
73776;SDS011;62088;50.240;2.696;2023-06-26T01:04:09;9.30;;;3.08;;
73776;SDS011;62088;50.240;2.696;2023-06-26T01:06:47;11.40;;;3.60;;
73776;SDS011;62088;50.240;2.696;2023-06-26T01:09:17;15.10;;;3.90;;
73776;SDS011;62088;50.240;2.696;2023-06-26T01:11:45;15.13;;;3.40;;
73776;SDS011;62088;50.240;2.696;2023-06-26T01:14:13;11.98;;;3.67;;
73776;SDS011;62088;50.240;2.696;2023-06-26T01:16:41;15.48;;;3.85;;
73776;SDS011;62088;50.240;2.696;2023-06-26T01:19:17;13.23;;;3.88;;
73776;SDS011;62088;50.240;2.696;2023-06-26T01:25:18;19.83;;;5.13;;
73776;SDS011;62088;50.240;2.696;2023-06-26T01:27:56;13.20;;;4.10;;
73776;SDS011;62088;50.240;2.696;2023-06-26T01:30:23;17.02;;;4.20;;
73776;SDS011;62088;50.240;2.696;2023-06-26T01:32:51;16.60;;;3.90;;
73776;SDS011;62088;50.240;2.696;2023-06-26T01:35:21;11.20;;;3.78;;
73776;SDS011;62088;50.240;2.696;2023-06-26T01:37:48;15.30;;;3.75;;
73776;SDS011;62088;50.240;2.696;2023-06-26T01:40:15;14.63;;;3.58;;
73776;SDS011;62088;50.240;2.696;2023-06-26T01:42:42;14.73;;;3.85;;
73776;SDS011;62088;50.240;2.696;2023-06-26T01:45:13;15.10;;;3.63;;
73776;SDS011;62088;50.240;2.696;2023-06-26T01:47:48;9.23;;;3.05;;
73776;SDS011;62088;50.240;2.696;2023-06-26T01:50:18;12.10;;;3.10;;
73776;SDS011;62088;50.240;2.696;2023-06-26T01:55:53;17.20;;;3.53;;
73776;SDS011;62088;50.240;2.696;2023-06-26T01:58:27;17.90;;;3.78;;
73776;SDS011;62088;50.240;2.696;2023-06-26T02:00:54;14.65;;;4.00;;
73776;SDS011;62088;50.240;2.696;2023-06-26T02:03:22;15.65;;;3.45;;
73776;SDS011;62088;50.240;2.696;2023-06-26T02:05:51;15.50;;;3.58;;
73776;SDS011;62088;50.240;2.696;2023-06-26T02:08:18;12.32;;;3.03;;
73776;SDS011;62088;50.240;2.696;2023-06-26T02:10:48;15.85;;;3.72;;
73776;SDS011;62088;50.240;2.696;2023-06-26T02:13:15;13.25;;;2.80;;
73776;SDS011;62088;50.240;2.696;2023-06-26T02:15:43;13.50;;;3.05;;
73776;SDS011;62088;50.240;2.696;2023-06-26T02:18:10;12.55;;;2.75;;
73776;SDS011;62088;50.240;2.696;2023-06-26T02:20:37;12.10;;;3.50;;
73776;SDS011;62088;50.240;2.696;2023-06-26T02:23:05;11.70;;;2.83;;
73776;SDS011;62088;50.240;2.696;2023-06-26T02:25:34;15.02;;;2.97;;
73776;SDS011;62088;50.240;2.696;2023-06-26T02:28:02;14.98;;;3.00;;
73776;SDS011;62088;50.240;2.696;2023-06-26T02:30:28;11.98;;;3.00;;
73776;SDS011;62088;50.240;2.696;2023-06-26T02:32:58;11.27;;;2.78;;
73776;SDS011;62088;50.240;2.696;2023-06-26T02:35:25;17.20;;;3.45;;
73776;SDS011;62088;50.240;2.696;2023-06-26T02:37:52;16.33;;;3.50;;
73776;SDS011;62088;50.240;2.696;2023-06-26T02:40:19;13.68;;;4.05;;
73776;SDS011;62088;50.240;2.696;2023-06-26T02:42:47;13.55;;;3.42;;
73776;SDS011;62088;50.240;2.696;2023-06-26T02:45:14;12.75;;;2.85;;
73776;SDS011;62088;50.240;2.696;2023-06-26T02:47:41;12.30;;;3.05;;
73776;SDS011;62088;50.240;2.696;2023-06-26T02:50:10;12.55;;;3.20;;
73776;SDS011;62088;50.240;2.696;2023-06-26T02:52:56;14.82;;;3.58;;
73776;SDS011;62088;50.240;2.696;2023-06-26T02:55:23;12.43;;;3.10;;
73776;SDS011;62088;50.240;2.696;2023-06-26T02:57:51;10.65;;;2.60;;
73776;SDS011;62088;50.240;2.696;2023-06-26T03:00:19;11.45;;;2.50;;
73776;SDS011;62088;50.240;2.696;2023-06-26T03:02:49;13.27;;;2.67;;
73776;SDS011;62088;50.240;2.696;2023-06-26T03:05:18;10.38;;;2.58;;
73776;SDS011;62088;50.240;2.696;2023-06-26T03:07:46;11.45;;;2.65;;
73776;SDS011;62088;50.240;2.696;2023-06-26T03:10:13;11.35;;;2.80;;
73776;SDS011;62088;50.240;2.696;2023-06-26T03:12:42;10.90;;;3.05;;
73776;SDS011;62088;50.240;2.696;2023-06-26T03:15:10;11.57;;;2.75;;
73776;SDS011;62088;50.240;2.696;2023-06-26T03:17:38;14.70;;;2.88;;
73776;SDS011;62088;50.240;2.696;2023-06-26T03:20:09;13.82;;;3.40;;
73776;SDS011;62088;50.240;2.696;2023-06-26T03:22:49;13.55;;;3.17;;
73776;SDS011;62088;50.240;2.696;2023-06-26T03:25:18;11.70;;;2.70;;
73776;SDS011;62088;50.240;2.696;2023-06-26T03:27:46;11.95;;;2.95;;
73776;SDS011;62088;50.240;2.696;2023-06-26T03:30:15;9.35;;;2.70;;
73776;SDS011;62088;50.240;2.696;2023-06-26T03:32:44;14.00;;;3.40;;
73776;SDS011;62088;50.240;2.696;2023-06-26T03:35:11;11.63;;;2.60;;
73776;SDS011;62088;50.240;2.696;2023-06-26T03:37:38;16.83;;;3.13;;
73776;SDS011;62088;50.240;2.696;2023-06-26T03:40:07;12.73;;;3.05;;
73776;SDS011;62088;50.240;2.696;2023-06-26T03:42:36;11.35;;;2.65;;
73776;SDS011;62088;50.240;2.696;2023-06-26T03:45:03;14.25;;;2.72;;
73776;SDS011;62088;50.240;2.696;2023-06-26T03:47:32;16.63;;;3.40;;
73776;SDS011;62088;50.240;2.696;2023-06-26T03:50:01;12.10;;;2.95;;
73776;SDS011;62088;50.240;2.696;2023-06-26T03:52:28;13.70;;;2.92;;
73776;SDS011;62088;50.240;2.696;2023-06-26T03:54:57;10.00;;;2.42;;
73776;SDS011;62088;50.240;2.696;2023-06-26T03:57:24;14.43;;;3.33;;
73776;SDS011;62088;50.240;2.696;2023-06-26T03:59:52;15.30;;;3.17;;
73776;SDS011;62088;50.240;2.696;2023-06-26T04:02:20;12.32;;;2.80;;
73776;SDS011;62088;50.240;2.696;2023-06-26T04:04:47;13.45;;;3.05;;
73776;SDS011;62088;50.240;2.696;2023-06-26T04:07:14;19.77;;;3.67;;
73776;SDS011;62088;50.240;2.696;2023-06-26T04:09:42;11.45;;;2.95;;
73776;SDS011;62088;50.240;2.696;2023-06-26T04:12:09;15.73;;;3.20;;
73776;SDS011;62088;50.240;2.696;2023-06-26T04:14:36;15.48;;;3.20;;
73776;SDS011;62088;50.240;2.696;2023-06-26T04:17:03;13.80;;;2.60;;
73776;SDS011;62088;50.240;2.696;2023-06-26T04:19:30;10.50;;;2.85;;
73776;SDS011;62088;50.240;2.696;2023-06-26T04:21:59;16.25;;;2.70;;
73776;SDS011;62088;50.240;2.696;2023-06-26T04:24:26;13.93;;;3.30;;
73776;SDS011;62088;50.240;2.696;2023-06-26T04:26:53;13.00;;;3.30;;
73776;SDS011;62088;50.240;2.696;2023-06-26T04:29:24;14.25;;;3.45;;
73776;SDS011;62088;50.240;2.696;2023-06-26T04:31:55;15.70;;;2.85;;
73776;SDS011;62088;50.240;2.696;2023-06-26T04:34:26;17.00;;;3.00;;
73776;SDS011;62088;50.240;2.696;2023-06-26T04:36:54;14.98;;;3.45;;
73776;SDS011;62088;50.240;2.696;2023-06-26T04:39:21;13.48;;;3.00;;
73776;SDS011;62088;50.240;2.696;2023-06-26T04:41:48;10.43;;;2.45;;
73776;SDS011;62088;50.240;2.696;2023-06-26T04:44:15;15.75;;;3.22;;
73776;SDS011;62088;50.240;2.696;2023-06-26T04:46:42;18.27;;;3.63;;
73776;SDS011;62088;50.240;2.696;2023-06-26T04:49:10;14.52;;;2.95;;
73776;SDS011;62088;50.240;2.696;2023-06-26T04:51:37;13.88;;;3.22;;
73776;SDS011;62088;50.240;2.696;2023-06-26T04:54:07;11.45;;;2.60;;
73776;SDS011;62088;50.240;2.696;2023-06-26T04:56:35;13.18;;;2.90;;
73776;SDS011;62088;50.240;2.696;2023-06-26T04:59:02;13.43;;;2.92;;
73776;SDS011;62088;50.240;2.696;2023-06-26T05:01:29;12.50;;;2.90;;
73776;SDS011;62088;50.240;2.696;2023-06-26T05:03:58;15.15;;;2.80;;
73776;SDS011;62088;50.240;2.696;2023-06-26T05:06:26;15.13;;;3.17;;
73776;SDS011;62088;50.240;2.696;2023-06-26T05:08:53;14.13;;;2.80;;
73776;SDS011;62088;50.240;2.696;2023-06-26T05:11:20;13.75;;;3.20;;
73776;SDS011;62088;50.240;2.696;2023-06-26T05:13:47;13.05;;;2.80;;
73776;SDS011;62088;50.240;2.696;2023-06-26T05:16:14;11.07;;;2.72;;
73776;SDS011;62088;50.240;2.696;2023-06-26T05:18:41;12.30;;;3.03;;
73776;SDS011;62088;50.240;2.696;2023-06-26T05:21:08;11.15;;;2.88;;
73776;SDS011;62088;50.240;2.696;2023-06-26T05:23:35;12.13;;;2.80;;
73776;SDS011;62088;50.240;2.696;2023-06-26T05:26:03;14.10;;;3.20;;
73776;SDS011;62088;50.240;2.696;2023-06-26T05:28:30;11.02;;;2.60;;
73776;SDS011;62088;50.240;2.696;2023-06-26T05:30:58;10.07;;;2.55;;
73776;SDS011;62088;50.240;2.696;2023-06-26T05:33:26;13.38;;;2.70;;
73776;SDS011;62088;50.240;2.696;2023-06-26T05:35:53;9.82;;;2.75;;
73776;SDS011;62088;50.240;2.696;2023-06-26T05:38:21;11.50;;;2.42;;
73776;SDS011;62088;50.240;2.696;2023-06-26T05:40:48;10.27;;;2.78;;
73776;SDS011;62088;50.240;2.696;2023-06-26T05:43:15;14.88;;;2.92;;
73776;SDS011;62088;50.240;2.696;2023-06-26T05:45:53;8.05;;;2.25;;
73776;SDS011;62088;50.240;2.696;2023-06-26T05:48:20;11.88;;;3.08;;
73776;SDS011;62088;50.240;2.696;2023-06-26T05:50:47;8.43;;;2.42;;
73776;SDS011;62088;50.240;2.696;2023-06-26T05:53:14;9.57;;;2.40;;
73776;SDS011;62088;50.240;2.696;2023-06-26T05:55:42;10.13;;;2.25;;
73776;SDS011;62088;50.240;2.696;2023-06-26T05:58:10;9.63;;;2.35;;
73776;SDS011;62088;50.240;2.696;2023-06-26T06:00:39;9.95;;;2.30;;
73776;SDS011;62088;50.240;2.696;2023-06-26T06:03:09;11.00;;;2.97;;
73776;SDS011;62088;50.240;2.696;2023-06-26T06:05:37;10.55;;;2.75;;
73776;SDS011;62088;50.240;2.696;2023-06-26T06:08:04;10.45;;;2.42;;
73776;SDS011;62088;50.240;2.696;2023-06-26T06:10:32;8.48;;;2.25;;
73776;SDS011;62088;50.240;2.696;2023-06-26T06:12:59;8.85;;;2.55;;
73776;SDS011;62088;50.240;2.696;2023-06-26T06:15:26;7.53;;;2.00;;
73776;SDS011;62088;50.240;2.696;2023-06-26T06:17:56;12.10;;;2.30;;
73776;SDS011;62088;50.240;2.696;2023-06-26T06:20:24;8.55;;;2.00;;
73776;SDS011;62088;50.240;2.696;2023-06-26T06:22:51;10.27;;;2.17;;
73776;SDS011;62088;50.240;2.696;2023-06-26T06:25:18;12.68;;;2.47;;
73776;SDS011;62088;50.240;2.696;2023-06-26T06:27:45;10.57;;;2.22;;
73776;SDS011;62088;50.240;2.696;2023-06-26T06:30:12;5.70;;;2.05;;
73776;SDS011;62088;50.240;2.696;2023-06-26T06:32:39;7.38;;;2.00;;
73776;SDS011;62088;50.240;2.696;2023-06-26T06:35:07;7.55;;;1.98;;
73776;SDS011;62088;50.240;2.696;2023-06-26T06:37:37;7.93;;;2.35;;
73776;SDS011;62088;50.240;2.696;2023-06-26T06:40:05;6.47;;;1.80;;
73776;SDS011;62088;50.240;2.696;2023-06-26T06:42:33;10.32;;;2.47;;
73776;SDS011;62088;50.240;2.696;2023-06-26T06:45:01;8.85;;;1.85;;
73776;SDS011;62088;50.240;2.696;2023-06-26T06:47:29;5.93;;;1.80;;
73776;SDS011;62088;50.240;2.696;2023-06-26T06:49:57;7.70;;;2.17;;
73776;SDS011;62088;50.240;2.696;2023-06-26T06:52:25;9.77;;;2.03;;
73776;SDS011;62088;50.240;2.696;2023-06-26T06:54:52;5.63;;;2.05;;
73776;SDS011;62088;50.240;2.696;2023-06-26T06:57:25;8.25;;;2.35;;
73776;SDS011;62088;50.240;2.696;2023-06-26T06:59:52;6.90;;;1.70;;
73776;SDS011;62088;50.240;2.696;2023-06-26T07:02:19;10.23;;;1.88;;
73776;SDS011;62088;50.240;2.696;2023-06-26T07:04:46;5.00;;;1.60;;
73776;SDS011;62088;50.240;2.696;2023-06-26T07:07:13;5.95;;;1.60;;
73776;SDS011;62088;50.240;2.696;2023-06-26T07:09:44;6.75;;;1.90;;
73776;SDS011;62088;50.240;2.696;2023-06-26T07:12:11;8.35;;;2.42;;
73776;SDS011;62088;50.240;2.696;2023-06-26T07:14:38;6.32;;;1.73;;
73776;SDS011;62088;50.240;2.696;2023-06-26T07:17:05;6.38;;;1.55;;
73776;SDS011;62088;50.240;2.696;2023-06-26T07:19:32;3.92;;;1.52;;
73776;SDS011;62088;50.240;2.696;2023-06-26T07:21:59;6.68;;;1.73;;
73776;SDS011;62088;50.240;2.696;2023-06-26T07:24:26;6.82;;;1.75;;
73776;SDS011;62088;50.240;2.696;2023-06-26T07:26:54;5.20;;;1.65;;
73776;SDS011;62088;50.240;2.696;2023-06-26T07:29:21;6.60;;;1.88;;
73776;SDS011;62088;50.240;2.696;2023-06-26T07:31:48;5.55;;;1.98;;
73776;SDS011;62088;50.240;2.696;2023-06-26T07:34:16;9.90;;;2.30;;
73776;SDS011;62088;50.240;2.696;2023-06-26T07:36:43;7.80;;;1.60;;
73776;SDS011;62088;50.240;2.696;2023-06-26T07:39:10;6.00;;;1.50;;
73776;SDS011;62088;50.240;2.696;2023-06-26T07:41:43;11.18;;;2.38;;
73776;SDS011;62088;50.240;2.696;2023-06-26T07:44:10;5.88;;;1.60;;
73776;SDS011;62088;50.240;2.696;2023-06-26T07:46:37;6.53;;;1.73;;
73776;SDS011;62088;50.240;2.696;2023-06-26T07:49:05;6.43;;;1.52;;
73776;SDS011;62088;50.240;2.696;2023-06-26T07:51:32;8.68;;;2.03;;
73776;SDS011;62088;50.240;2.696;2023-06-26T07:53:59;4.90;;;1.60;;
73776;SDS011;62088;50.240;2.696;2023-06-26T07:56:27;5.95;;;1.50;;
73776;SDS011;62088;50.240;2.696;2023-06-26T07:58:54;4.07;;;1.45;;
73776;SDS011;62088;50.240;2.696;2023-06-26T08:01:23;6.55;;;1.50;;
73776;SDS011;62088;50.240;2.696;2023-06-26T08:03:51;6.20;;;1.80;;
73776;SDS011;62088;50.240;2.696;2023-06-26T08:06:18;7.30;;;1.60;;
73776;SDS011;62088;50.240;2.696;2023-06-26T08:08:45;8.65;;;1.95;;
73776;SDS011;62088;50.240;2.696;2023-06-26T08:11:12;4.85;;;1.30;;
73776;SDS011;62088;50.240;2.696;2023-06-26T08:13:39;6.30;;;1.70;;
73776;SDS011;62088;50.240;2.696;2023-06-26T08:16:06;5.57;;;1.50;;
73776;SDS011;62088;50.240;2.696;2023-06-26T08:18:33;6.95;;;1.55;;
73776;SDS011;62088;50.240;2.696;2023-06-26T08:21:00;4.05;;;1.40;;
73776;SDS011;62088;50.240;2.696;2023-06-26T08:23:27;5.32;;;1.48;;
73776;SDS011;62088;50.240;2.696;2023-06-26T08:25:54;5.25;;;1.45;;
73776;SDS011;62088;50.240;2.696;2023-06-26T08:28:25;5.07;;;1.27;;
73776;SDS011;62088;50.240;2.696;2023-06-26T08:30:52;5.28;;;1.45;;
73776;SDS011;62088;50.240;2.696;2023-06-26T08:33:19;6.40;;;1.40;;
73776;SDS011;62088;50.240;2.696;2023-06-26T08:35:46;9.23;;;1.90;;
73776;SDS011;62088;50.240;2.696;2023-06-26T08:38:13;9.73;;;1.42;;
73776;SDS011;62088;50.240;2.696;2023-06-26T08:40:46;6.38;;;1.48;;
73776;SDS011;62088;50.240;2.696;2023-06-26T08:43:13;3.28;;;1.23;;
73776;SDS011;62088;50.240;2.696;2023-06-26T08:45:41;5.55;;;1.58;;
73776;SDS011;62088;50.240;2.696;2023-06-26T08:48:08;7.80;;;1.25;;
73776;SDS011;62088;50.240;2.696;2023-06-26T08:50:36;6.38;;;1.42;;
73776;SDS011;62088;50.240;2.696;2023-06-26T08:53:09;3.92;;;1.20;;
73776;SDS011;62088;50.240;2.696;2023-06-26T08:55:59;5.13;;;1.38;;
73776;SDS011;62088;50.240;2.696;2023-06-26T08:58:27;7.53;;;1.75;;
73776;SDS011;62088;50.240;2.696;2023-06-26T09:00:54;4.28;;;1.42;;
73776;SDS011;62088;50.240;2.696;2023-06-26T09:03:23;7.93;;;1.60;;
73776;SDS011;62088;50.240;2.696;2023-06-26T09:05:52;6.00;;;1.60;;
73776;SDS011;62088;50.240;2.696;2023-06-26T09:08:19;5.07;;;1.30;;
73776;SDS011;62088;50.240;2.696;2023-06-26T09:10:46;4.88;;;1.33;;
73776;SDS011;62088;50.240;2.696;2023-06-26T09:13:13;6.50;;;1.67;;
73776;SDS011;62088;50.240;2.696;2023-06-26T09:15:55;5.95;;;1.48;;
73776;SDS011;62088;50.240;2.696;2023-06-26T09:18:22;6.95;;;1.45;;
73776;SDS011;62088;50.240;2.696;2023-06-26T09:20:49;6.43;;;1.77;;
73776;SDS011;62088;50.240;2.696;2023-06-26T09:23:17;3.85;;;1.58;;
73776;SDS011;62088;50.240;2.696;2023-06-26T09:25:44;8.10;;;1.60;;
73776;SDS011;62088;50.240;2.696;2023-06-26T09:28:13;6.18;;;1.33;;
73776;SDS011;62088;50.240;2.696;2023-06-26T09:30:41;5.43;;;1.35;;
73776;SDS011;62088;50.240;2.696;2023-06-26T09:33:19;4.78;;;1.63;;
73776;SDS011;62088;50.240;2.696;2023-06-26T09:35:47;5.68;;;1.48;;
73776;SDS011;62088;50.240;2.696;2023-06-26T09:38:14;4.05;;;1.38;;
73776;SDS011;62088;50.240;2.696;2023-06-26T09:40:41;6.68;;;1.33;;
73776;SDS011;62088;50.240;2.696;2023-06-26T09:43:09;4.22;;;1.13;;
73776;SDS011;62088;50.240;2.696;2023-06-26T09:45:40;4.97;;;1.42;;
73776;SDS011;62088;50.240;2.696;2023-06-26T09:48:07;4.50;;;1.33;;
73776;SDS011;62088;50.240;2.696;2023-06-26T09:50:38;6.30;;;1.40;;
73776;SDS011;62088;50.240;2.696;2023-06-26T09:53:28;6.20;;;1.60;;
73776;SDS011;62088;50.240;2.696;2023-06-26T09:55:55;4.57;;;1.40;;
73776;SDS011;62088;50.240;2.696;2023-06-26T09:58:22;7.18;;;1.50;;
73776;SDS011;62088;50.240;2.696;2023-06-26T10:00:51;5.13;;;1.23;;
73776;SDS011;62088;50.240;2.696;2023-06-26T10:03:18;3.80;;;1.38;;
73776;SDS011;62088;50.240;2.696;2023-06-26T10:05:46;3.55;;;1.20;;
73776;SDS011;62088;50.240;2.696;2023-06-26T10:08:14;3.55;;;1.20;;
73776;SDS011;62088;50.240;2.696;2023-06-26T10:10:43;3.65;;;1.10;;
73776;SDS011;62088;50.240;2.696;2023-06-26T10:13:16;5.80;;;1.95;;
73776;SDS011;62088;50.240;2.696;2023-06-26T10:15:49;5.55;;;1.38;;
73776;SDS011;62088;50.240;2.696;2023-06-26T10:18:19;5.22;;;1.30;;
73776;SDS011;62088;50.240;2.696;2023-06-26T10:20:49;4.85;;;1.00;;
73776;SDS011;62088;50.240;2.696;2023-06-26T10:23:20;4.88;;;1.35;;
73776;SDS011;62088;50.240;2.696;2023-06-26T10:25:48;3.28;;;1.10;;
73776;SDS011;62088;50.240;2.696;2023-06-26T10:28:17;7.57;;;1.42;;
73776;SDS011;62088;50.240;2.696;2023-06-26T10:30:48;5.90;;;1.30;;
73776;SDS011;62088;50.240;2.696;2023-06-26T10:33:19;4.32;;;1.23;;
73776;SDS011;62088;50.240;2.696;2023-06-26T10:35:47;5.18;;;1.30;;
73776;SDS011;62088;50.240;2.696;2023-06-26T10:38:14;3.47;;;1.20;;
73776;SDS011;62088;50.240;2.696;2023-06-26T10:40:42;7.22;;;1.45;;
73776;SDS011;62088;50.240;2.696;2023-06-26T10:43:12;4.93;;;1.17;;
73776;SDS011;62088;50.240;2.696;2023-06-26T10:45:46;6.05;;;1.25;;
73776;SDS011;62088;50.240;2.696;2023-06-26T10:48:19;4.38;;;1.30;;
73776;SDS011;62088;50.240;2.696;2023-06-26T10:50:47;5.78;;;1.23;;
73776;SDS011;62088;50.240;2.696;2023-06-26T10:56:04;5.28;;;1.63;;
73776;SDS011;62088;50.240;2.696;2023-06-26T11:03:39;4.00;;;1.13;;
73776;SDS011;62088;50.240;2.696;2023-06-26T11:08:46;4.30;;;1.42;;
73776;SDS011;62088;50.240;2.696;2023-06-26T11:11:21;5.10;;;1.30;;
73776;SDS011;62088;50.240;2.696;2023-06-26T11:14:09;4.13;;;1.10;;
73776;SDS011;62088;50.240;2.696;2023-06-26T11:16:37;5.93;;;1.05;;
73776;SDS011;62088;50.240;2.696;2023-06-26T11:19:09;6.78;;;1.70;;
73776;SDS011;62088;50.240;2.696;2023-06-26T11:21:40;5.45;;;1.00;;
73776;SDS011;62088;50.240;2.696;2023-06-26T11:24:07;13.57;;;1.30;;
73776;SDS011;62088;50.240;2.696;2023-06-26T11:26:41;6.22;;;1.50;;
73776;SDS011;62088;50.240;2.696;2023-06-26T11:29:10;5.97;;;1.50;;
73776;SDS011;62088;50.240;2.696;2023-06-26T11:31:38;5.18;;;1.10;;
73776;SDS011;62088;50.240;2.696;2023-06-26T11:34:10;6.43;;;1.27;;
73776;SDS011;62088;50.240;2.696;2023-06-26T11:36:39;5.20;;;1.30;;
73776;SDS011;62088;50.240;2.696;2023-06-26T11:39:09;5.20;;;1.05;;
73776;SDS011;62088;50.240;2.696;2023-06-26T11:41:39;16.42;;;1.90;;
73776;SDS011;62088;50.240;2.696;2023-06-26T11:44:08;4.07;;;1.13;;
73776;SDS011;62088;50.240;2.696;2023-06-26T11:46:36;4.47;;;1.40;;
73776;SDS011;62088;50.240;2.696;2023-06-26T11:49:05;4.53;;;1.10;;
73776;SDS011;62088;50.240;2.696;2023-06-26T11:51:33;7.05;;;1.48;;
73776;SDS011;62088;50.240;2.696;2023-06-26T11:54:02;2.95;;;1.10;;
73776;SDS011;62088;50.240;2.696;2023-06-26T11:56:30;6.20;;;1.83;;
73776;SDS011;62088;50.240;2.696;2023-06-26T11:59:07;5.88;;;1.60;;
73776;SDS011;62088;50.240;2.696;2023-06-26T12:04:05;4.13;;;1.23;;
73776;SDS011;62088;50.240;2.696;2023-06-26T12:06:35;3.08;;;1.00;;
73776;SDS011;62088;50.240;2.696;2023-06-26T12:09:06;4.35;;;1.10;;
73776;SDS011;62088;50.240;2.696;2023-06-26T12:11:37;4.70;;;1.20;;
73776;SDS011;62088;50.240;2.696;2023-06-26T12:14:06;4.85;;;1.20;;
73776;SDS011;62088;50.240;2.696;2023-06-26T12:16:34;3.90;;;1.13;;
73776;SDS011;62088;50.240;2.696;2023-06-26T12:19:05;2.92;;;0.95;;
73776;SDS011;62088;50.240;2.696;2023-06-26T12:24:09;6.00;;;1.35;;
73776;SDS011;62088;50.240;2.696;2023-06-26T12:26:40;5.90;;;1.10;;
73776;SDS011;62088;50.240;2.696;2023-06-26T12:29:13;5.63;;;1.45;;
73776;SDS011;62088;50.240;2.696;2023-06-26T12:31:42;6.63;;;1.15;;
73776;SDS011;62088;50.240;2.696;2023-06-26T12:34:17;3.65;;;1.10;;
73776;SDS011;62088;50.240;2.696;2023-06-26T12:36:47;4.07;;;1.15;;
73776;SDS011;62088;50.240;2.696;2023-06-26T12:39:19;6.18;;;1.42;;
73776;SDS011;62088;50.240;2.696;2023-06-26T12:44:20;4.55;;;1.15;;
73776;SDS011;62088;50.240;2.696;2023-06-26T12:46:49;5.63;;;1.23;;
73776;SDS011;62088;50.240;2.696;2023-06-26T12:49:19;4.80;;;1.30;;
73776;SDS011;62088;50.240;2.696;2023-06-26T12:51:57;5.25;;;1.10;;
73776;SDS011;62088;50.240;2.696;2023-06-26T12:54:25;3.38;;;0.98;;
73776;SDS011;62088;50.240;2.696;2023-06-26T12:56:53;4.18;;;1.30;;
73776;SDS011;62088;50.240;2.696;2023-06-26T12:59:20;3.50;;;1.00;;
73776;SDS011;62088;50.240;2.696;2023-06-26T13:01:48;4.45;;;1.10;;
73776;SDS011;62088;50.240;2.696;2023-06-26T13:04:15;4.18;;;1.10;;
73776;SDS011;62088;50.240;2.696;2023-06-26T13:06:43;3.95;;;0.90;;
73776;SDS011;62088;50.240;2.696;2023-06-26T13:09:10;3.90;;;1.10;;
73776;SDS011;62088;50.240;2.696;2023-06-26T13:11:37;5.10;;;1.40;;
73776;SDS011;62088;50.240;2.696;2023-06-26T13:14:05;3.30;;;1.30;;
73776;SDS011;62088;50.240;2.696;2023-06-26T13:16:37;3.72;;;1.30;;
73776;SDS011;62088;50.240;2.696;2023-06-26T13:19:05;3.13;;;0.90;;
73776;SDS011;62088;50.240;2.696;2023-06-26T13:21:32;4.40;;;1.00;;
73776;SDS011;62088;50.240;2.696;2023-06-26T13:24:01;3.67;;;1.08;;
73776;SDS011;62088;50.240;2.696;2023-06-26T13:26:30;4.97;;;1.40;;
73776;SDS011;62088;50.240;2.696;2023-06-26T13:29:01;3.92;;;1.10;;
73776;SDS011;62088;50.240;2.696;2023-06-26T13:31:28;4.80;;;1.00;;
73776;SDS011;62088;50.240;2.696;2023-06-26T13:33:57;5.97;;;1.50;;
73776;SDS011;62088;50.240;2.696;2023-06-26T13:36:24;4.80;;;1.25;;
73776;SDS011;62088;50.240;2.696;2023-06-26T13:38:52;3.58;;;1.33;;
73776;SDS011;62088;50.240;2.696;2023-06-26T13:41:23;3.00;;;0.88;;
73776;SDS011;62088;50.240;2.696;2023-06-26T13:43:51;5.07;;;1.50;;
73776;SDS011;62088;50.240;2.696;2023-06-26T13:46:19;4.35;;;1.42;;
73776;SDS011;62088;50.240;2.696;2023-06-26T13:48:46;3.67;;;1.13;;
73776;SDS011;62088;50.240;2.696;2023-06-26T13:51:13;4.93;;;1.02;;
73776;SDS011;62088;50.240;2.696;2023-06-26T13:53:40;3.83;;;1.00;;
73776;SDS011;62088;50.240;2.696;2023-06-26T13:56:07;4.50;;;1.30;;
73776;SDS011;62088;50.240;2.696;2023-06-26T13:58:34;3.75;;;1.15;;
73776;SDS011;62088;50.240;2.696;2023-06-26T14:01:03;4.78;;;1.17;;
73776;SDS011;62088;50.240;2.696;2023-06-26T14:03:33;3.35;;;1.15;;
73776;SDS011;62088;50.240;2.696;2023-06-26T14:06:00;4.38;;;1.10;;
73776;SDS011;62088;50.240;2.696;2023-06-26T14:08:27;3.95;;;1.38;;
73776;SDS011;62088;50.240;2.696;2023-06-26T14:10:54;2.45;;;0.60;;
73776;SDS011;62088;50.240;2.696;2023-06-26T14:13:21;3.50;;;1.10;;
73776;SDS011;62088;50.240;2.696;2023-06-26T14:15:49;6.05;;;1.20;;
73776;SDS011;62088;50.240;2.696;2023-06-26T14:18:19;5.00;;;1.42;;
73776;SDS011;62088;50.240;2.696;2023-06-26T14:20:50;3.45;;;0.90;;
73776;SDS011;62088;50.240;2.696;2023-06-26T14:23:17;4.28;;;1.10;;
73776;SDS011;62088;50.240;2.696;2023-06-26T14:25:44;5.88;;;1.13;;
73776;SDS011;62088;50.240;2.696;2023-06-26T14:28:15;2.92;;;1.17;;
73776;SDS011;62088;50.240;2.696;2023-06-26T14:30:42;4.10;;;1.30;;
73776;SDS011;62088;50.240;2.696;2023-06-26T14:33:09;4.97;;;1.40;;
73776;SDS011;62088;50.240;2.696;2023-06-26T14:35:36;3.50;;;1.30;;
73776;SDS011;62088;50.240;2.696;2023-06-26T14:38:03;5.60;;;0.95;;
73776;SDS011;62088;50.240;2.696;2023-06-26T14:40:31;3.95;;;1.20;;
73776;SDS011;62088;50.240;2.696;2023-06-26T14:42:58;6.32;;;1.27;;
73776;SDS011;62088;50.240;2.696;2023-06-26T14:45:26;5.55;;;1.35;;
73776;SDS011;62088;50.240;2.696;2023-06-26T14:47:53;4.78;;;1.50;;
73776;SDS011;62088;50.240;2.696;2023-06-26T14:50:20;4.55;;;1.10;;
73776;SDS011;62088;50.240;2.696;2023-06-26T14:52:48;3.90;;;1.08;;
73776;SDS011;62088;50.240;2.696;2023-06-26T14:55:15;5.70;;;1.55;;
73776;SDS011;62088;50.240;2.696;2023-06-26T14:57:42;4.10;;;1.48;;
73776;SDS011;62088;50.240;2.696;2023-06-26T15:00:09;7.40;;;1.20;;
73776;SDS011;62088;50.240;2.696;2023-06-26T15:02:36;6.20;;;1.08;;
73776;SDS011;62088;50.240;2.696;2023-06-26T15:05:04;10.18;;;1.58;;
73776;SDS011;62088;50.240;2.696;2023-06-26T15:07:31;5.25;;;1.20;;
73776;SDS011;62088;50.240;2.696;2023-06-26T15:09:58;3.25;;;1.10;;
73776;SDS011;62088;50.240;2.696;2023-06-26T15:12:26;5.45;;;1.45;;
73776;SDS011;62088;50.240;2.696;2023-06-26T15:14:53;5.13;;;1.30;;